Time,TemperatureF,DewpointF,PressureIn,WindDirection,WindDirectionDegrees,WindSpeedMPH,WindSpeedGustMPH,Humidity,HourlyPrecipIn,Conditions,Clouds,dailyrainin,SoftwareType,DateUTC
2013-05-11 00:02:00,52.0,49.6,29.35,NNW,338,1.0,0.0,92,0.00,,,0.00,meteohub,2013-05-11 05:02:00,
2013-05-11 00:07:00,52.0,49.6,29.35,NNW,338,0.0,2.0,92,0.00,,,0.00,meteohub,2013-05-11 05:07:00,
2013-05-11 00:12:00,51.8,49.6,29.35,NNW,338,0.0,2.0,92,0.00,,,0.00,meteohub,2013-05-11 05:12:00,
2013-05-11 00:17:00,51.6,49.5,29.35,NNW,338,0.0,2.0,92,0.00,,,0.00,meteohub,2013-05-11 05:17:00,
2013-05-11 00:22:00,51.6,49.5,29.35,NNW,338,0.0,2.0,92,0.00,,,0.00,meteohub,2013-05-11 05:22:00,
2013-05-11 00:27:00,51.4,49.5,29.35,NNW,338,0.0,2.0,93,0.00,,,0.00,meteohub,2013-05-11 05:27:00,
2013-05-11 00:32:00,51.4,49.5,29.35,NNW,338,1.0,3.0,93,0.00,,,0.00,meteohub,2013-05-11 05:32:00,
2013-05-11 00:37:00,51.4,49.5,29.35,NNW,338,2.0,3.0,93,0.00,,,0.00,meteohub,2013-05-11 05:37:00,
2013-05-11 00:42:00,51.4,49.5,29.35,NW,325,0.0,4.0,93,0.00,,,0.00,meteohub,2013-05-11 05:42:00,
2013-05-11 00:47:00,51.3,49.3,29.35,NW,325,0.0,4.0,93,0.00,,,0.00,meteohub,2013-05-11 05:47:00,
2013-05-11 00:53:00,51.3,49.3,29.35,NW,325,0.0,4.0,93,0.00,,,0.00,meteohub,2013-05-11 05:53:00,
2013-05-11 00:57:00,51.3,49.3,29.35,NW,325,0.0,4.0,93,0.00,,,0.00,meteohub,2013-05-11 05:57:00,
2013-05-11 01:03:00,51.1,49.1,29.35,NW,325,0.0,3.0,93,0.00,,,0.00,meteohub,2013-05-11 06:03:00,
2013-05-11 01:08:00,51.1,49.5,29.35,NW,325,0.0,3.0,94,0.00,,,0.00,meteohub,2013-05-11 06:08:00,
2013-05-11 01:13:00,50.9,49.3,29.35,NW,325,0.0,3.0,94,0.00,,,0.00,meteohub,2013-05-11 06:13:00,
2013-05-11 01:18:00,50.7,49.1,29.35,NW,325,0.0,0.0,94,0.00,,,0.00,meteohub,2013-05-11 06:18:00,
2013-05-11 01:23:00,50.7,49.1,29.35,NW,325,0.0,3.0,94,0.00,,,0.00,meteohub,2013-05-11 06:23:00,
2013-05-11 01:28:00,50.5,48.9,29.35,NW,325,0.0,3.0,94,0.00,,,0.00,meteohub,2013-05-11 06:28:00,
2013-05-11 01:33:00,50.5,48.9,29.35,NW,325,0.0,3.0,94,0.00,,,0.00,meteohub,2013-05-11 06:33:00,
2013-05-11 01:38:00,50.4,48.7,29.35,NW,325,0.0,3.0,94,0.00,,,0.00,meteohub,2013-05-11 06:38:00,
2013-05-11 01:43:00,50.4,48.7,29.35,NW,325,0.0,3.0,94,0.00,,,0.00,meteohub,2013-05-11 06:43:00,
2013-05-11 01:48:00,50.2,48.6,29.35,NW,325,0.0,3.0,94,0.00,,,0.00,meteohub,2013-05-11 06:48:00,
2013-05-11 01:53:00,50.2,48.6,29.34,NW,325,2.0,3.0,94,0.00,,,0.00,meteohub,2013-05-11 06:53:00,
2013-05-11 01:58:00,50.0,48.4,29.34,NW,325,0.0,3.0,94,0.00,,,0.00,meteohub,2013-05-11 06:58:00,
2013-05-11 02:03:00,49.8,48.2,29.34,NW,325,0.0,3.0,94,0.00,,,0.00,meteohub,2013-05-11 07:03:00,
2013-05-11 02:08:00,49.6,48.0,29.34,NW,325,0.0,3.0,94,0.00,,,0.00,meteohub,2013-05-11 07:08:00,
2013-05-11 02:13:00,49.6,48.0,29.34,NW,325,0.0,2.0,94,0.00,,,0.00,meteohub,2013-05-11 07:13:00,
2013-05-11 02:18:00,49.5,47.8,29.34,NW,325,0.0,2.0,94,0.00,,,0.00,meteohub,2013-05-11 07:18:00,
2013-05-11 02:23:00,49.5,47.8,29.34,NW,325,0.0,0.0,94,0.00,,,0.00,meteohub,2013-05-11 07:23:00,
2013-05-11 02:29:00,49.3,47.7,29.34,NW,325,2.0,2.0,94,0.00,,,0.00,meteohub,2013-05-11 07:29:00,
2013-05-11 02:34:00,49.3,47.8,29.34,NW,325,0.0,2.0,95,0.00,,,0.00,meteohub,2013-05-11 07:34:00,
2013-05-11 02:39:00,49.3,47.7,29.34,NW,325,0.0,2.0,94,0.00,,,0.00,meteohub,2013-05-11 07:39:00,
2013-05-11 02:44:00,49.1,47.5,29.34,NW,325,3.0,3.0,94,0.00,,,0.00,meteohub,2013-05-11 07:44:00,
2013-05-11 02:49:00,49.1,47.7,29.34,NW,325,0.0,3.0,95,0.00,,,0.00,meteohub,2013-05-11 07:49:00,
2013-05-11 02:54:00,48.9,47.5,29.35,NW,325,2.0,3.0,95,0.00,,,0.00,meteohub,2013-05-11 07:54:00,
2013-05-11 02:59:00,48.9,47.5,29.34,NW,325,0.0,3.0,95,0.00,,,0.00,meteohub,2013-05-11 07:59:00,
2013-05-11 03:04:00,48.9,47.5,29.34,NW,325,0.0,3.0,95,0.00,,,0.00,meteohub,2013-05-11 08:04:00,
2013-05-11 03:09:00,48.9,47.5,29.34,NW,325,0.0,3.0,95,0.00,,,0.00,meteohub,2013-05-11 08:09:00,
2013-05-11 03:14:00,48.7,47.3,29.34,NW,325,1.0,3.0,95,0.00,,,0.00,meteohub,2013-05-11 08:14:00,
2013-05-11 03:19:00,48.7,47.3,29.34,WNW,303,1.0,2.0,95,0.00,,,0.00,meteohub,2013-05-11 08:19:00,
2013-05-11 03:24:00,48.7,47.3,29.34,WNW,303,0.0,3.0,95,0.00,,,0.00,meteohub,2013-05-11 08:24:00,
2013-05-11 03:29:00,48.6,47.1,29.34,SW,234,0.0,3.0,95,0.00,,,0.00,meteohub,2013-05-11 08:29:00,
2013-05-11 03:34:00,48.4,46.9,29.34,SW,233,2.0,4.0,95,0.00,,,0.00,meteohub,2013-05-11 08:34:00,
2013-05-11 03:39:00,48.4,46.9,29.34,SW,226,2.0,4.0,95,0.00,,,0.00,meteohub,2013-05-11 08:39:00,
2013-05-11 03:44:00,48.4,46.9,29.34,SW,226,0.0,4.0,95,0.00,,,0.00,meteohub,2013-05-11 08:44:00,
2013-05-11 03:49:00,48.2,46.8,29.34,WSW,238,0.0,4.0,95,0.00,,,0.00,meteohub,2013-05-11 08:49:00,
2013-05-11 03:54:00,48.0,46.6,29.34,WSW,250,0.0,4.0,95,0.00,,,0.00,meteohub,2013-05-11 08:54:00,
2013-05-11 03:59:00,48.0,46.6,29.34,WSW,237,0.0,4.0,95,0.00,,,0.00,meteohub,2013-05-11 08:59:00,
2013-05-11 04:04:00,47.8,46.4,29.34,SW,236,0.0,4.0,95,0.00,,,0.00,meteohub,2013-05-11 09:04:00,
2013-05-11 04:09:00,47.8,46.4,29.34,SW,236,1.0,5.0,95,0.00,,,0.00,meteohub,2013-05-11 09:09:00,
2013-05-11 04:14:00,47.7,46.2,29.34,WSW,238,0.0,5.0,95,0.00,,,0.00,meteohub,2013-05-11 09:14:00,
2013-05-11 04:19:00,47.7,46.2,29.34,SW,236,0.0,5.0,95,0.00,,,0.00,meteohub,2013-05-11 09:19:00,
2013-05-11 04:24:00,47.5,46.0,29.33,SW,236,3.0,4.0,95,0.00,,,0.00,meteohub,2013-05-11 09:24:00,
2013-05-11 04:29:00,47.5,46.0,29.33,SW,236,0.0,4.0,95,0.00,,,0.00,meteohub,2013-05-11 09:29:00,
2013-05-11 04:34:00,47.5,46.0,29.33,SW,236,0.0,4.0,95,0.00,,,0.00,meteohub,2013-05-11 09:34:00,
2013-05-11 04:40:00,47.3,46.2,29.33,WSW,244,2.0,4.0,96,0.00,,,0.00,meteohub,2013-05-11 09:40:00,
2013-05-11 04:45:00,47.3,46.2,29.33,WSW,240,1.0,4.0,96,0.00,,,0.00,meteohub,2013-05-11 09:45:00,
2013-05-11 04:50:00,47.3,46.2,29.33,WSW,255,3.0,5.0,96,0.00,,,0.00,meteohub,2013-05-11 09:50:00,
2013-05-11 04:55:00,47.1,46.0,29.33,WSW,254,0.0,5.0,96,0.00,,,0.00,meteohub,2013-05-11 09:55:00,
2013-05-11 05:00:00,47.1,46.0,29.33,WSW,251,0.0,5.0,96,0.00,,,0.00,meteohub,2013-05-11 10:00:00,
2013-05-11 05:05:00,47.1,46.0,29.32,WSW,252,0.0,5.0,96,0.00,,,0.00,meteohub,2013-05-11 10:05:00,
2013-05-11 05:10:00,47.1,46.0,29.32,WSW,251,2.0,4.0,96,0.00,,,0.00,meteohub,2013-05-11 10:10:00,
2013-05-11 05:15:00,47.1,46.0,29.32,WSW,240,0.0,4.0,96,0.00,,,0.00,meteohub,2013-05-11 10:15:00,
2013-05-11 05:20:00,47.1,46.0,29.32,WSW,242,2.0,4.0,96,0.00,,,0.00,meteohub,2013-05-11 10:20:00,
2013-05-11 05:25:00,47.1,46.0,29.32,SW,233,0.0,5.0,96,0.00,,,0.00,meteohub,2013-05-11 10:25:00,
2013-05-11 05:30:00,47.1,46.0,29.32,WSW,242,4.0,5.0,96,0.00,,,0.00,meteohub,2013-05-11 10:30:00,
2013-05-11 05:35:00,47.1,46.0,29.32,WSW,254,0.0,5.0,96,0.00,,,0.00,meteohub,2013-05-11 10:35:00,
2013-05-11 05:40:00,47.1,46.0,29.32,West,266,4.0,5.0,96,0.00,,,0.00,meteohub,2013-05-11 10:40:00,
2013-05-11 05:45:00,47.1,46.0,29.32,WSW,251,3.0,5.0,96,0.00,,,0.00,meteohub,2013-05-11 10:45:00,
2013-05-11 05:50:00,47.1,46.0,29.32,WSW,237,4.0,5.0,96,0.00,,,0.00,meteohub,2013-05-11 10:50:00,
2013-05-11 05:55:00,47.1,46.0,29.32,WSW,250,0.0,5.0,96,0.00,,,0.00,meteohub,2013-05-11 10:55:00,
2013-05-11 06:00:00,47.1,46.0,29.33,WSW,257,2.0,6.0,96,0.00,,,0.00,meteohub,2013-05-11 11:00:00,
2013-05-11 06:05:00,46.9,45.9,29.33,WSW,253,0.0,6.0,96,0.00,,,0.00,meteohub,2013-05-11 11:05:00,
2013-05-11 06:10:00,46.9,45.9,29.33,WSW,248,3.0,6.0,96,0.00,,,0.00,meteohub,2013-05-11 11:10:00,
2013-05-11 06:15:00,47.1,46.0,29.33,WSW,252,0.0,6.0,96,0.00,,,0.00,meteohub,2013-05-11 11:15:00,
2013-05-11 06:20:00,47.1,46.0,29.33,West,265,2.0,6.0,96,0.00,,,0.00,meteohub,2013-05-11 11:20:00,
2013-05-11 06:25:00,47.1,46.0,29.32,WSW,242,2.0,6.0,96,0.00,,,0.00,meteohub,2013-05-11 11:25:00,
2013-05-11 06:30:00,47.3,46.2,29.32,WSW,254,2.0,7.0,96,0.00,,,0.00,meteohub,2013-05-11 11:30:00,
2013-05-11 06:35:00,47.5,46.4,29.33,WSW,255,2.0,7.0,96,0.00,,,0.00,meteohub,2013-05-11 11:35:00,
2013-05-11 06:40:00,47.7,46.9,29.32,SW,230,0.0,7.0,97,0.00,,,0.00,meteohub,2013-05-11 11:40:00,
2013-05-11 06:45:00,47.8,46.9,29.32,WSW,250,6.0,7.0,97,0.00,,,0.00,meteohub,2013-05-11 11:45:00,
2013-05-11 06:50:00,48.0,47.1,29.33,WSW,244,3.0,7.0,97,0.00,,,0.00,meteohub,2013-05-11 11:50:00,
2013-05-11 06:55:00,48.4,47.5,29.32,WSW,257,3.0,7.0,97,0.00,,,0.00,meteohub,2013-05-11 11:55:00,
2013-05-11 07:00:00,48.6,47.7,29.32,West,260,2.0,7.0,97,0.00,,,0.00,meteohub,2013-05-11 12:00:00,
2013-05-11 07:06:00,48.9,48.0,29.32,WSW,257,4.0,7.0,97,0.00,,,0.00,meteohub,2013-05-11 12:06:00,
2013-05-11 07:11:00,49.3,48.4,29.32,SW,226,3.0,9.0,97,0.00,,,0.00,meteohub,2013-05-11 12:11:00,
2013-05-11 07:16:00,49.6,48.7,29.32,West,271,0.0,9.0,97,0.00,,,0.00,meteohub,2013-05-11 12:16:00,
2013-05-11 07:21:00,49.8,48.9,29.32,West,264,1.0,9.0,97,0.00,,,0.00,meteohub,2013-05-11 12:21:00,
2013-05-11 07:26:00,50.4,49.5,29.32,WSW,241,2.0,7.0,97,0.00,,,0.00,meteohub,2013-05-11 12:26:00,
2013-05-11 07:31:00,50.7,49.8,29.32,WSW,242,4.0,7.0,97,0.00,,,0.00,meteohub,2013-05-11 12:31:00,
2013-05-11 07:36:00,51.1,50.2,29.32,SW,215,4.0,10.0,97,0.00,,,0.00,meteohub,2013-05-11 12:36:00,
2013-05-11 07:41:00,51.4,50.4,29.32,SSW,204,3.0,10.0,96,0.00,,,0.00,meteohub,2013-05-11 12:41:00,
2013-05-11 07:46:00,52.0,50.9,29.32,WSW,255,4.0,10.0,96,0.00,,,0.00,meteohub,2013-05-11 12:46:00,
2013-05-11 07:51:00,52.3,51.3,29.32,West,263,3.0,10.0,96,0.00,,,0.00,meteohub,2013-05-11 12:51:00,
2013-05-11 07:56:00,53.1,51.6,29.31,WSW,245,7.0,11.0,95,0.00,,,0.00,meteohub,2013-05-11 12:56:00,
2013-05-11 08:01:00,53.4,51.8,29.32,West,269,10.0,11.0,94,0.00,,,0.00,meteohub,2013-05-11 13:01:00,
2013-05-11 08:06:00,53.8,51.8,29.32,WNW,288,2.0,12.0,93,0.00,,,0.00,meteohub,2013-05-11 13:06:00,
2013-05-11 08:11:00,54.0,51.6,29.32,WNW,290,3.0,13.0,92,0.00,,,0.00,meteohub,2013-05-11 13:11:00,
2013-05-11 08:16:00,54.1,51.8,29.33,West,261,4.0,13.0,92,0.00,,,0.00,meteohub,2013-05-11 13:16:00,
2013-05-11 08:21:00,54.1,51.6,29.33,WNW,303,4.0,13.0,91,0.00,,,0.00,meteohub,2013-05-11 13:21:00,
2013-05-11 08:26:00,54.3,51.4,29.33,NNW,338,4.0,14.0,90,0.00,,,0.00,meteohub,2013-05-11 13:26:00,
2013-05-11 08:31:00,54.9,52.0,29.33,NW,311,1.0,14.0,90,0.00,,,0.00,meteohub,2013-05-11 13:31:00,
2013-05-11 08:36:00,55.6,52.2,29.33,WNW,300,5.0,14.0,88,0.00,,,0.00,meteohub,2013-05-11 13:36:00,
2013-05-11 08:41:00,55.9,51.8,29.33,NW,314,7.0,16.0,86,0.00,,,0.00,meteohub,2013-05-11 13:41:00,
2013-05-11 08:47:00,56.5,51.6,29.33,WNW,293,10.0,16.0,84,0.00,,,0.00,meteohub,2013-05-11 13:47:00,
2013-05-11 08:52:00,56.8,51.4,29.33,NNW,340,6.0,16.0,82,0.00,,,0.00,meteohub,2013-05-11 13:52:00,
2013-05-11 08:57:00,57.4,52.0,29.33,NW,325,4.0,16.0,82,0.00,,,0.00,meteohub,2013-05-11 13:57:00,
2013-05-11 09:02:00,57.7,51.6,29.33,WNW,296,6.0,16.0,80,0.00,,,0.00,meteohub,2013-05-11 14:02:00,
2013-05-11 09:07:00,57.9,51.4,29.33,NW,307,10.0,15.0,79,0.00,,,0.00,meteohub,2013-05-11 14:07:00,
2013-05-11 09:12:00,57.9,51.4,29.33,North,350,5.0,15.0,79,0.00,,,0.00,meteohub,2013-05-11 14:12:00,
2013-05-11 09:17:00,57.9,51.1,29.34,NNW,341,8.0,17.0,78,0.00,,,0.00,meteohub,2013-05-11 14:17:00,
2013-05-11 09:22:00,58.3,50.7,29.34,NNW,335,7.0,17.0,76,0.00,,,0.00,meteohub,2013-05-11 14:22:00,
2013-05-11 09:27:00,58.1,49.8,29.34,NNW,335,16.0,21.0,74,0.00,,,0.00,meteohub,2013-05-11 14:27:00,
2013-05-11 09:32:00,58.3,49.6,29.34,NW,317,12.0,21.0,73,0.00,,,0.00,meteohub,2013-05-11 14:32:00,
2013-05-11 09:37:00,58.5,49.8,29.34,NNW,341,6.0,24.0,73,0.00,,,0.00,meteohub,2013-05-11 14:37:00,
2013-05-11 09:42:00,58.6,50.0,29.34,NW,326,16.0,24.0,73,0.00,,,0.00,meteohub,2013-05-11 14:42:00,
2013-05-11 09:47:00,58.6,50.0,29.34,WNW,286,5.0,24.0,73,0.00,,,0.00,meteohub,2013-05-11 14:47:00,
2013-05-11 09:52:00,59.2,49.8,29.34,NW,321,9.0,20.0,71,0.00,,,0.00,meteohub,2013-05-11 14:52:00,
2013-05-11 09:57:00,59.5,50.2,29.35,NW,319,5.0,20.0,71,0.00,,,0.00,meteohub,2013-05-11 14:57:00,
2013-05-11 10:02:00,60.1,49.1,29.35,North,11,11.0,20.0,67,0.00,,,0.00,meteohub,2013-05-11 15:02:00,
2013-05-11 10:07:00,60.4,48.6,29.36,NNW,345,17.0,20.0,65,0.00,,,0.00,meteohub,2013-05-11 15:07:00,
2013-05-11 10:12:00,60.3,43.5,29.36,North,355,13.0,21.0,54,0.00,,,0.00,meteohub,2013-05-11 15:12:00,
2013-05-11 10:17:00,60.1,42.4,29.36,NNW,342,10.0,23.0,52,0.00,,,0.00,meteohub,2013-05-11 15:17:00,
2013-05-11 10:22:00,60.1,41.9,29.36,NNE,18,14.0,25.0,51,0.00,,,0.00,meteohub,2013-05-11 15:22:00,
2013-05-11 10:27:00,60.3,41.0,29.36,NNW,338,15.0,25.0,49,0.00,,,0.00,meteohub,2013-05-11 15:27:00,
2013-05-11 10:32:00,60.3,41.5,29.36,North,0,9.0,25.0,50,0.00,,,0.00,meteohub,2013-05-11 15:32:00,
2013-05-11 10:37:00,60.4,42.8,29.36,NNW,340,10.0,23.0,52,0.00,,,0.00,meteohub,2013-05-11 15:37:00,
2013-05-11 10:42:00,60.4,41.2,29.36,NW,322,15.0,21.0,49,0.00,,,0.00,meteohub,2013-05-11 15:42:00,
2013-05-11 10:47:00,60.6,37.9,29.37,North,5,11.0,21.0,43,0.00,,,0.00,meteohub,2013-05-11 15:47:00,
2013-05-11 10:52:00,60.4,37.2,29.37,NNW,339,6.0,24.0,42,0.00,,,0.00,meteohub,2013-05-11 15:52:00,
2013-05-11 10:57:00,60.4,36.7,29.37,North,5,11.0,24.0,41,0.00,,,0.00,meteohub,2013-05-11 15:57:00,
2013-05-11 11:02:00,60.4,36.0,29.38,North,0,15.0,24.0,40,0.00,,,0.00,meteohub,2013-05-11 16:02:00,
2013-05-11 11:07:00,60.4,36.7,29.38,North,0,10.0,22.0,41,0.00,,,0.00,meteohub,2013-05-11 16:07:00,
2013-05-11 11:12:00,60.6,37.4,29.38,NNW,331,15.0,23.0,42,0.00,,,0.00,meteohub,2013-05-11 16:12:00,
2013-05-11 11:17:00,60.8,35.6,29.38,NNW,329,17.0,23.0,39,0.00,,,0.00,meteohub,2013-05-11 16:17:00,
2013-05-11 11:22:00,61.0,36.5,29.38,North,5,13.0,23.0,40,0.00,,,0.00,meteohub,2013-05-11 16:22:00,
2013-05-11 11:27:00,61.2,34.7,29.38,North,355,16.0,21.0,37,0.00,,,0.00,meteohub,2013-05-11 16:27:00,
2013-05-11 11:32:00,61.3,34.9,29.38,North,355,16.0,24.0,37,0.00,,,0.00,meteohub,2013-05-11 16:32:00,
2013-05-11 11:37:00,61.0,35.2,29.38,North,0,22.0,24.0,38,0.00,,,0.00,meteohub,2013-05-11 16:37:00,
2013-05-11 11:42:00,61.0,35.8,29.38,NNE,32,12.0,24.0,39,0.00,,,0.00,meteohub,2013-05-11 16:42:00,
2013-05-11 11:48:00,60.8,35.6,29.39,NNW,335,15.0,24.0,39,0.00,,,0.00,meteohub,2013-05-11 16:48:00,
2013-05-11 11:53:00,61.0,35.2,29.38,NNE,26,15.0,24.0,38,0.00,,,0.00,meteohub,2013-05-11 16:53:00,
2013-05-11 11:58:00,60.8,34.3,29.38,North,355,14.0,24.0,37,0.00,,,0.00,meteohub,2013-05-11 16:58:00,
2013-05-11 12:03:00,61.0,35.2,29.38,NE,38,13.0,24.0,38,0.00,,,0.00,meteohub,2013-05-11 17:03:00,
2013-05-11 12:08:00,61.3,35.6,29.38,NNW,336,6.0,27.0,38,0.00,,,0.00,meteohub,2013-05-11 17:08:00,
2013-05-11 12:13:00,61.3,35.6,29.38,North,10,15.0,27.0,38,0.00,,,0.00,meteohub,2013-05-11 17:13:00,
2013-05-11 12:18:00,61.3,35.6,29.38,North,5,14.0,26.0,38,0.00,,,0.00,meteohub,2013-05-11 17:18:00,
2013-05-11 12:23:00,61.5,37.6,29.39,North,5,6.0,26.0,41,0.00,,,0.00,meteohub,2013-05-11 17:23:00,
2013-05-11 12:28:00,61.9,36.7,29.39,North,0,16.0,26.0,39,0.00,,,0.00,meteohub,2013-05-11 17:28:00,
2013-05-11 12:33:00,61.9,36.0,29.39,North,9,6.0,24.0,38,0.00,,,0.00,meteohub,2013-05-11 17:33:00,
2013-05-11 12:38:00,61.7,36.5,29.39,NNW,348,11.0,30.0,39,0.00,,,0.00,meteohub,2013-05-11 17:38:00,
2013-05-11 12:43:00,61.3,35.6,29.39,WNW,293,12.0,30.0,38,0.00,,,0.00,meteohub,2013-05-11 17:43:00,
2013-05-11 12:48:00,61.3,34.9,29.39,NW,323,28.0,30.0,37,0.00,,,0.00,meteohub,2013-05-11 17:48:00,
2013-05-11 12:53:00,61.2,34.0,29.39,NNW,339,24.0,28.0,36,0.00,,,0.00,meteohub,2013-05-11 17:53:00,
2013-05-11 12:58:00,61.2,34.7,29.39,NW,323,7.0,28.0,37,0.00,,,0.00,meteohub,2013-05-11 17:58:00,
2013-05-11 13:03:00,61.0,33.1,29.39,NNW,347,21.0,29.0,35,0.00,,,0.00,meteohub,2013-05-11 18:03:00,
2013-05-11 13:08:00,61.0,33.8,29.40,NW,309,6.0,29.0,36,0.00,,,0.00,meteohub,2013-05-11 18:08:00,
2013-05-11 13:13:00,61.0,33.8,29.40,NNE,19,6.0,31.0,36,0.00,,,0.00,meteohub,2013-05-11 18:13:00,
2013-05-11 13:18:00,61.0,33.8,29.40,North,9,6.0,31.0,36,0.00,,,0.00,meteohub,2013-05-11 18:18:00,
2013-05-11 13:23:00,61.0,33.1,29.40,North,349,15.0,29.0,35,0.00,,,0.00,meteohub,2013-05-11 18:23:00,
2013-05-11 13:29:00,61.2,34.0,29.40,North,5,12.0,26.0,36,0.00,,,0.00,meteohub,2013-05-11 18:29:00,
2013-05-11 13:34:00,61.3,32.7,29.40,NNW,343,15.0,23.0,34,0.00,,,0.00,meteohub,2013-05-11 18:34:00,
2013-05-11 13:39:00,61.5,32.9,29.40,NW,325,13.0,28.0,34,0.00,,,0.00,meteohub,2013-05-11 18:39:00,
2013-05-11 13:44:00,61.5,32.2,29.41,NNW,339,9.0,28.0,33,0.00,,,0.00,meteohub,2013-05-11 18:44:00,
2013-05-11 13:49:00,61.5,32.9,29.41,NW,319,19.0,28.0,34,0.00,,,0.00,meteohub,2013-05-11 18:49:00,
2013-05-11 13:54:00,61.5,31.5,29.41,North,5,9.0,25.0,32,0.00,,,0.00,meteohub,2013-05-11 18:54:00,
2013-05-11 13:59:00,61.5,32.2,29.41,North,5,12.0,23.0,33,0.00,,,0.00,meteohub,2013-05-11 18:59:00,
2013-05-11 14:04:00,61.5,30.6,29.41,NW,313,16.0,23.0,31,0.00,,,0.00,meteohub,2013-05-11 19:04:00,
2013-05-11 14:09:00,61.5,29.8,29.41,North,350,11.0,24.0,30,0.00,,,0.00,meteohub,2013-05-11 19:09:00,
2013-05-11 14:14:00,61.3,28.8,29.42,NNW,342,17.0,25.0,29,0.00,,,0.00,meteohub,2013-05-11 19:14:00,
2013-05-11 14:19:00,61.2,30.2,29.41,NNE,23,13.0,26.0,31,0.00,,,0.00,meteohub,2013-05-11 19:19:00,
2013-05-11 14:24:00,61.3,31.3,29.42,NW,309,14.0,26.0,32,0.00,,,0.00,meteohub,2013-05-11 19:24:00,
2013-05-11 14:29:00,61.5,32.2,29.42,North,0,9.0,27.0,33,0.00,,,0.00,meteohub,2013-05-11 19:29:00,
2013-05-11 14:34:00,61.5,32.2,29.42,NNW,348,14.0,27.0,33,0.00,,,0.00,meteohub,2013-05-11 19:34:00,
2013-05-11 14:39:00,61.3,32.0,29.42,NW,304,6.0,24.0,33,0.00,,,0.00,meteohub,2013-05-11 19:39:00,
2013-05-11 14:44:00,61.5,30.6,29.42,North,355,14.0,22.0,31,0.00,,,0.00,meteohub,2013-05-11 19:44:00,
2013-05-11 14:50:00,61.5,32.2,29.42,NW,313,20.0,28.0,33,0.00,,,0.00,meteohub,2013-05-11 19:50:00,
2013-05-11 14:55:00,61.3,31.3,29.42,North,5,8.0,28.0,32,0.00,,,0.00,meteohub,2013-05-11 19:55:00,
2013-05-11 14:59:00,61.2,31.8,29.42,NNW,346,7.0,28.0,33,0.00,,,0.00,meteohub,2013-05-11 19:59:00,
2013-05-11 15:04:00,61.3,32.0,29.42,North,355,14.0,26.0,33,0.00,,,0.00,meteohub,2013-05-11 20:04:00,
2013-05-11 15:10:00,61.3,32.0,29.42,North,0,11.0,26.0,33,0.00,,,0.00,meteohub,2013-05-11 20:10:00,
2013-05-11 15:15:00,61.3,31.3,29.43,North,10,11.0,26.0,32,0.00,,,0.00,meteohub,2013-05-11 20:15:00,
2013-05-11 15:20:00,61.3,32.0,29.42,NNE,21,15.0,27.0,33,0.00,,,0.00,meteohub,2013-05-11 20:20:00,
2013-05-11 15:25:00,61.2,31.8,29.43,North,355,6.0,27.0,33,0.00,,,0.00,meteohub,2013-05-11 20:25:00,
2013-05-11 15:30:00,61.2,31.8,29.42,NNW,327,19.0,28.0,33,0.00,,,0.00,meteohub,2013-05-11 20:30:00,
2013-05-11 15:35:00,61.0,32.4,29.43,North,355,15.0,28.0,34,0.00,,,0.00,meteohub,2013-05-11 20:35:00,
2013-05-11 15:40:00,61.0,32.4,29.43,North,5,15.0,26.0,34,0.00,,,0.00,meteohub,2013-05-11 20:40:00,
2013-05-11 15:45:00,61.0,33.8,29.43,NNW,345,15.0,26.0,36,0.00,,,0.00,meteohub,2013-05-11 20:45:00,
2013-05-11 15:50:00,60.8,32.9,29.43,NNW,336,7.0,26.0,35,0.00,,,0.00,meteohub,2013-05-11 20:50:00,
2013-05-11 15:55:00,60.4,34.0,29.43,NNW,333,7.0,26.0,37,0.00,,,0.00,meteohub,2013-05-11 20:55:00,
2013-05-11 16:00:00,60.8,32.9,29.43,WNW,293,9.0,26.0,35,0.00,,,0.00,meteohub,2013-05-11 21:00:00,
2013-05-11 16:05:00,61.2,33.3,29.43,NW,324,6.0,22.0,35,0.00,,,0.00,meteohub,2013-05-11 21:05:00,
2013-05-11 16:10:00,61.3,33.4,29.43,NNW,342,6.0,22.0,35,0.00,,,0.00,meteohub,2013-05-11 21:10:00,
2013-05-11 16:15:00,61.3,32.0,29.43,NNE,17,11.0,22.0,33,0.00,,,0.00,meteohub,2013-05-11 21:15:00,
2013-05-11 16:21:00,61.0,33.1,29.43,North,0,6.0,24.0,35,0.00,,,0.00,meteohub,2013-05-11 21:21:00,
2013-05-11 16:26:00,60.4,33.4,29.43,North,350,7.0,24.0,36,0.00,,,0.00,meteohub,2013-05-11 21:26:00,
2013-05-11 16:31:00,60.3,33.3,29.43,NW,321,6.0,21.0,36,0.00,,,0.00,meteohub,2013-05-11 21:31:00,
2013-05-11 16:36:00,60.3,32.5,29.43,West,271,6.0,20.0,35,0.00,,,0.00,meteohub,2013-05-11 21:36:00,
2013-05-11 16:41:00,60.4,32.7,29.43,NNW,334,20.0,25.0,35,0.00,,,0.00,meteohub,2013-05-11 21:41:00,
2013-05-11 16:46:00,60.8,33.6,29.43,North,5,9.0,25.0,36,0.00,,,0.00,meteohub,2013-05-11 21:46:00,
2013-05-11 16:51:00,60.8,32.9,29.43,NNE,15,7.0,21.0,35,0.00,,,0.00,meteohub,2013-05-11 21:51:00,
2013-05-11 16:56:00,60.6,32.9,29.43,North,9,11.0,21.0,35,0.00,,,0.00,meteohub,2013-05-11 21:56:00,
2013-05-11 17:01:00,60.4,32.0,29.43,NNW,342,20.0,21.0,34,0.00,,,0.00,meteohub,2013-05-11 22:01:00,
2013-05-11 17:06:00,60.4,32.7,29.43,North,5,7.0,26.0,35,0.00,,,0.00,meteohub,2013-05-11 22:06:00,
2013-05-11 17:11:00,60.3,32.5,29.43,NNE,15,8.0,26.0,35,0.00,,,0.00,meteohub,2013-05-11 22:11:00,
2013-05-11 17:16:00,60.3,31.8,29.43,North,355,12.0,22.0,34,0.00,,,0.00,meteohub,2013-05-11 22:16:00,
2013-05-11 17:21:00,60.4,33.4,29.44,NNW,345,5.0,19.0,36,0.00,,,0.00,meteohub,2013-05-11 22:21:00,
2013-05-11 17:26:00,60.6,32.2,29.44,NW,312,9.0,21.0,34,0.00,,,0.00,meteohub,2013-05-11 22:26:00,
2013-05-11 17:31:00,60.6,32.2,29.43,NNW,344,12.0,21.0,34,0.00,,,0.00,meteohub,2013-05-11 22:31:00,
2013-05-11 17:36:00,60.4,33.4,29.43,North,355,8.0,24.0,36,0.00,,,0.00,meteohub,2013-05-11 22:36:00,
2013-05-11 17:41:00,60.3,32.5,29.44,North,355,7.0,24.0,35,0.00,,,0.00,meteohub,2013-05-11 22:41:00,
2013-05-11 17:46:00,60.3,33.8,29.44,NW,316,14.0,24.0,37,0.00,,,0.00,meteohub,2013-05-11 22:46:00,
2013-05-11 17:51:00,60.3,31.8,29.44,North,350,11.0,19.0,34,0.00,,,0.00,meteohub,2013-05-11 22:51:00,
2013-05-11 17:56:00,60.1,31.6,29.44,NE,46,8.0,22.0,34,0.00,,,0.00,meteohub,2013-05-11 22:56:00,
2013-05-11 18:01:00,59.9,32.2,29.44,North,5,12.0,22.0,35,0.00,,,0.00,meteohub,2013-05-11 23:01:00,
2013-05-11 18:06:00,59.9,31.5,29.44,NW,325,10.0,18.0,34,0.00,,,0.00,meteohub,2013-05-11 23:06:00,
2013-05-11 18:11:00,59.7,32.7,29.44,NNW,338,13.0,24.0,36,0.00,,,0.00,meteohub,2013-05-11 23:11:00,
2013-05-11 18:16:00,59.7,32.0,29.44,NNE,17,6.0,24.0,35,0.00,,,0.00,meteohub,2013-05-11 23:16:00,
2013-05-11 18:21:00,59.5,30.4,29.44,NNW,345,5.0,23.0,33,0.00,,,0.00,meteohub,2013-05-11 23:21:00,
2013-05-11 18:26:00,59.4,30.2,29.44,NW,319,18.0,23.0,33,0.00,,,0.00,meteohub,2013-05-11 23:26:00,
2013-05-11 18:31:00,59.2,30.7,29.44,North,355,10.0,23.0,34,0.00,,,0.00,meteohub,2013-05-11 23:31:00,
2013-05-11 18:36:00,59.0,32.0,29.44,North,355,10.0,23.0,36,0.00,,,0.00,meteohub,2013-05-11 23:36:00,
2013-05-11 18:42:00,58.8,32.0,29.44,North,5,9.0,23.0,36,0.00,,,0.00,meteohub,2013-05-11 23:42:00,
2013-05-11 18:47:00,58.6,31.8,29.45,NW,308,11.0,23.0,36,0.00,,,0.00,meteohub,2013-05-11 23:47:00,
2013-05-11 18:52:00,58.5,31.6,29.44,North,351,5.0,23.0,36,0.00,,,0.00,meteohub,2013-05-11 23:52:00,
2013-05-11 18:57:00,58.3,31.5,29.45,North,350,12.0,23.0,36,0.00,,,0.00,meteohub,2013-05-11 23:57:00,
2013-05-11 19:02:00,58.1,32.0,29.45,North,9,6.0,20.0,37,0.00,,,0.00,meteohub,2013-05-12 00:02:00,
2013-05-11 19:07:00,58.1,31.3,29.45,NNE,23,5.0,17.0,36,0.00,,,0.00,meteohub,2013-05-12 00:07:00,
2013-05-11 19:12:00,57.9,31.1,29.45,NW,319,4.0,17.0,36,0.00,,,0.00,meteohub,2013-05-12 00:12:00,
2013-05-11 19:17:00,57.6,30.0,29.46,NNW,345,10.0,20.0,35,0.00,,,0.00,meteohub,2013-05-12 00:17:00,
2013-05-11 19:22:00,57.4,30.0,29.46,North,355,7.0,20.0,35,0.00,,,0.00,meteohub,2013-05-12 00:22:00,
2013-05-11 19:27:00,57.2,29.8,29.46,North,350,9.0,20.0,35,0.00,,,0.00,meteohub,2013-05-12 00:27:00,
2013-05-11 19:32:00,57.0,30.4,29.46,North,0,2.0,19.0,36,0.00,,,0.00,meteohub,2013-05-12 00:32:00,
2013-05-11 19:37:00,56.8,29.5,29.46,North,0,7.0,19.0,35,0.00,,,0.00,meteohub,2013-05-12 00:37:00,
2013-05-11 19:42:00,56.7,29.3,29.46,NW,321,4.0,19.0,35,0.00,,,0.00,meteohub,2013-05-12 00:42:00,
2013-05-11 19:47:00,56.5,29.8,29.46,NNW,344,4.0,17.0,36,0.00,,,0.00,meteohub,2013-05-12 00:47:00,
2013-05-11 19:52:00,56.1,29.5,29.46,NNW,336,7.0,17.0,36,0.00,,,0.00,meteohub,2013-05-12 00:52:00,
2013-05-11 19:57:00,55.9,30.0,29.47,NNW,338,2.0,15.0,37,0.00,,,0.00,meteohub,2013-05-12 00:57:00,
2013-05-11 20:02:00,55.8,29.1,29.47,NNW,338,5.0,15.0,36,0.00,,,0.00,meteohub,2013-05-12 01:02:00,
2013-05-11 20:07:00,55.6,29.7,29.47,North,0,3.0,15.0,37,0.00,,,0.00,meteohub,2013-05-12 01:07:00,
2013-05-11 20:12:00,55.0,29.3,29.47,NNE,15,5.0,15.0,37,0.00,,,0.00,meteohub,2013-05-12 01:12:00,
2013-05-11 20:17:00,55.0,29.8,29.47,NNW,344,4.0,15.0,38,0.00,,,0.00,meteohub,2013-05-12 01:17:00,
2013-05-11 20:22:00,54.7,29.5,29.47,NW,309,2.0,10.0,38,0.00,,,0.00,meteohub,2013-05-12 01:22:00,
2013-05-11 20:27:00,54.5,30.0,29.47,NNW,346,3.0,10.0,39,0.00,,,0.00,meteohub,2013-05-12 01:27:00,
2013-05-11 20:32:00,54.1,29.7,29.47,North,355,2.0,10.0,39,0.00,,,0.00,meteohub,2013-05-12 01:32:00,
2013-05-11 20:37:00,54.0,30.2,29.47,NNW,327,5.0,10.0,40,0.00,,,0.00,meteohub,2013-05-12 01:37:00,
2013-05-11 20:42:00,53.8,30.0,29.47,North,351,0.0,9.0,40,0.00,,,0.00,meteohub,2013-05-12 01:42:00,
2013-05-11 20:47:00,53.6,29.8,29.48,NNW,342,4.0,9.0,40,0.00,,,0.00,meteohub,2013-05-12 01:47:00,
2013-05-11 20:52:00,53.4,30.4,29.48,North,350,1.0,7.0,41,0.00,,,0.00,meteohub,2013-05-12 01:52:00,
2013-05-11 20:57:00,53.2,30.7,29.48,North,350,3.0,6.0,42,0.00,,,0.00,meteohub,2013-05-12 01:57:00,
2013-05-11 21:02:00,53.1,30.6,29.48,North,350,0.0,6.0,42,0.00,,,0.00,meteohub,2013-05-12 02:02:00,
2013-05-11 21:07:00,52.9,30.4,29.48,North,350,4.0,6.0,42,0.00,,,0.00,meteohub,2013-05-12 02:07:00,
2013-05-11 21:12:00,52.5,30.7,29.48,North,350,0.0,6.0,43,0.00,,,0.00,meteohub,2013-05-12 02:12:00,
2013-05-11 21:17:00,52.3,30.6,29.48,North,350,0.0,4.0,43,0.00,,,0.00,meteohub,2013-05-12 02:17:00,
2013-05-11 21:22:00,52.2,30.9,29.49,North,350,0.0,4.0,44,0.00,,,0.00,meteohub,2013-05-12 02:22:00,
2013-05-11 21:28:00,52.0,30.7,29.49,North,350,0.0,4.0,44,0.00,,,0.00,meteohub,2013-05-12 02:28:00,
2013-05-11 21:33:00,51.6,30.9,29.49,North,350,0.0,4.0,45,0.00,,,0.00,meteohub,2013-05-12 02:33:00,
2013-05-11 21:38:00,51.4,30.7,29.49,North,350,0.0,2.0,45,0.00,,,0.00,meteohub,2013-05-12 02:38:00,
2013-05-11 21:43:00,51.3,30.6,29.49,North,350,0.0,3.0,45,0.00,,,0.00,meteohub,2013-05-12 02:43:00,
2013-05-11 21:48:00,51.1,31.1,29.49,North,350,0.0,3.0,46,0.00,,,0.00,meteohub,2013-05-12 02:48:00,
2013-05-11 21:53:00,50.7,30.7,29.49,North,350,2.0,3.0,46,0.00,,,0.00,meteohub,2013-05-12 02:53:00,
2013-05-11 21:58:00,50.5,30.6,29.49,North,350,0.0,4.0,46,0.00,,,0.00,meteohub,2013-05-12 02:58:00,
2013-05-11 22:03:00,50.4,30.4,29.49,North,350,2.0,4.0,46,0.00,,,0.00,meteohub,2013-05-12 03:03:00,
2013-05-11 22:08:00,50.4,30.9,29.49,North,350,1.0,4.0,47,0.00,,,0.00,meteohub,2013-05-12 03:08:00,
2013-05-11 22:13:00,50.2,30.7,29.50,North,350,0.0,3.0,47,0.00,,,0.00,meteohub,2013-05-12 03:13:00,
2013-05-11 22:18:00,50.2,30.7,29.50,NNW,347,0.0,4.0,47,0.00,,,0.00,meteohub,2013-05-12 03:18:00,
2013-05-11 22:23:00,50.0,30.6,29.50,NNW,347,0.0,4.0,47,0.00,,,0.00,meteohub,2013-05-12 03:23:00,
2013-05-11 22:28:00,49.8,30.4,29.50,NNW,347,0.0,3.0,47,0.00,,,0.00,meteohub,2013-05-12 03:28:00,
2013-05-11 22:33:00,49.6,30.2,29.50,NNW,347,1.0,3.0,47,0.00,,,0.00,meteohub,2013-05-12 03:33:00,
2013-05-11 22:38:00,49.5,30.6,29.50,NNW,347,2.0,3.0,48,0.00,,,0.00,meteohub,2013-05-12 03:38:00,
2013-05-11 22:43:00,49.3,30.4,29.51,NW,321,0.0,4.0,48,0.00,,,0.00,meteohub,2013-05-12 03:43:00,
2013-05-11 22:48:00,48.9,30.0,29.51,NW,321,1.0,4.0,48,0.00,,,0.00,meteohub,2013-05-12 03:48:00,
2013-05-11 22:53:00,48.7,29.8,29.51,NW,321,1.0,4.0,48,0.00,,,0.00,meteohub,2013-05-12 03:53:00,
2013-05-11 22:58:00,48.7,30.4,29.51,NW,321,0.0,4.0,49,0.00,,,0.00,meteohub,2013-05-12 03:58:00,
2013-05-11 23:01:00,48.6,30.2,29.51,NW,321,2.0,4.0,49,0.00,,,0.00,meteohub,2013-05-12 04:01:00,
2013-05-11 23:02:00,48.6,30.2,29.51,NW,321,0.0,4.0,49,0.00,,,0.00,meteohub,2013-05-12 04:02:00,
2013-05-11 23:07:00,48.4,30.6,29.51,NW,321,0.0,4.0,50,0.00,,,0.00,meteohub,2013-05-12 04:07:00,
2013-05-11 23:12:00,48.2,30.4,29.50,NW,313,2.0,5.0,50,0.00,,,0.00,meteohub,2013-05-12 04:12:00,
2013-05-11 23:17:00,48.0,30.7,29.51,NW,313,3.0,5.0,51,0.00,,,0.00,meteohub,2013-05-12 04:17:00,
2013-05-11 23:22:00,47.8,30.6,29.51,NW,313,1.0,5.0,51,0.00,,,0.00,meteohub,2013-05-12 04:22:00,
2013-05-11 23:27:00,47.8,31.1,29.50,NW,313,2.0,5.0,52,0.00,,,0.00,meteohub,2013-05-12 04:27:00,
2013-05-11 23:32:00,47.7,30.9,29.50,NW,313,2.0,4.0,52,0.00,,,0.00,meteohub,2013-05-12 04:32:00,
2013-05-11 23:37:00,47.5,31.3,29.51,NW,313,3.0,4.0,53,0.00,,,0.00,meteohub,2013-05-12 04:37:00,
2013-05-11 23:42:00,47.1,31.3,29.50,WNW,300,2.0,4.0,54,0.00,,,0.00,meteohub,2013-05-12 04:42:00,
2013-05-11 23:47:00,46.9,31.1,29.50,WNW,300,3.0,4.0,54,0.00,,,0.00,meteohub,2013-05-12 04:47:00,
2013-05-11 23:52:00,46.9,31.1,29.50,WNW,300,2.0,4.0,54,0.00,,,0.00,meteohub,2013-05-12 04:52:00,
2013-05-11 23:57:00,46.8,30.9,29.50,NW,317,4.0,4.0,54,0.00,,,0.00,meteohub,2013-05-12 04:57:00,